Sunday, May 27, 2018, 1:55 PM EDT

KDOV, Dover Air Force Base

Location: Dover, DE, United States Lat: 39.133
Local Time: 1:55 PM EDT (17:55 GMT) Lon: -75.467
Time Zone: US/Eastern Elev: 29 ft

Show me the last for .
Show Decoded

2018-05-27 12:56 METAR KDOV 271656Z AUTO 19004KT 10SM OVC023 27/23 A2992 RMK AO2 SLP135 T02730227
                 $ =
2018-05-27 12:11 METAR KDOV 271611Z AUTO 22003KT 10SM BKN021 BKN026 27/22 A2993 RMK AO2 CIG
                 021V042 BKN021 V SCT CIG 020 RWY01 SLP138 $ =
2018-05-27 11:56 METAR KDOV 271556Z AUTO 24004KT 10SM SCT019 BKN042 27/23 A2993 RMK AO2 SLP138
                 T02670229 $ =
2018-05-27 10:56 METAR KDOV 271456Z AUTO 22006KT 10SM SCT015 OVC032 25/23 A2993 RMK AO2 SLP138
                 T02510226 52008 $ =
2018-05-27 10:31 METAR KDOV 271431Z AUTO 24007KT 10SM SCT013 BKN030 OVC036 25/23 A2992 RMK AO2
                 SLP135 $ =
2018-05-27 10:21 METAR KDOV 271421Z AUTO 24007KT 10SM SCT013 BKN028 BKN036 OVC160 25/23 A2992 RMK
                 AO2 CIG 012V036 CIG 012 RWY01 SLP135 $ =
2018-05-27 09:56 METAR KDOV 271356Z AUTO 24007KT 10SM BKN012 OVC036 25/23 A2992 RMK AO2 SLP135
                 T02480226 $ =
2018-05-27 08:56 METAR KDOV 271256Z AUTO 21009KT 10SM BKN013 OVC037 24/22 A2991 RMK AO2 CIG 012
                 RWY01 SLP132 T02430223 $ =
2018-05-27 08:21 METAR KDOV 271221Z AUTO 21010KT 10SM BKN012 BKN038 OVC160 24/23 A2991 RMK AO2
                 SLP131 $ =
2018-05-27 08:06 METAR KDOV 271206Z AUTO 20011KT 10SM BKN010 BKN038 BKN160 25/23 A2990 RMK AO2
                 CIG 008V038 SLP128 $ =
2018-05-27 07:56 METAR KDOV 271156Z AUTO 19010KT 10SM BKN008 OVC160 24/22 A2990 RMK AO2 SLP128
                 60065 70065 T02400224 10245 20222 53009 $ =
2018-05-27 07:36 METAR KDOV 271136Z AUTO 19009KT 10SM OVC008 24/22 A2990 RMK AO2 SLP128 $ =
2018-05-27 06:56 METAR KDOV 271056Z AUTO 19009KT 10SM BKN007 OVC023 23/22 A2989 RMK AO2 SLP125
                 T02290222 $ =
2018-05-27 06:44 METAR KDOV 271044Z AUTO 19010KT 10SM BKN007 BKN020 OVC025 23/22 A2989 RMK AO2
                 CIG 007V023 BKN007 V SCT SLP125 $ =
2018-05-27 06:34 METAR KDOV 271034Z AUTO 19010KT 10SM SCT007 BKN023 BKN150 23/22 A2989 RMK AO2
                 CIG 007V150 SLP125 $ =
2018-05-27 06:29 METAR KDOV 271029Z AUTO 20009KT 10SM BKN007 BKN150 23/22 A2989 RMK AO2 CIG
                 007V150 BKN007 V SCT SLP125 $ =
2018-05-27 06:14 METAR KDOV 271014Z AUTO 18007KT 10SM FEW007 BKN150 22/22 A2989 RMK AO2 SLP125 $
                 =
2018-05-27 05:56 METAR KDOV 270956Z AUTO 19008KT 10SM OVC150 22/22 A2988 RMK AO2 DZE0856 SLP121
                 P0000 T02230216 $ =
2018-05-27 04:57 METAR KDOV 270857Z AUTO 18007KT 10SM FEW022 OVC130 22/22 A2988 RMK AO2 DZE56
                 SLP121 $ =
2018-05-27 04:56 METAR KDOV 270856Z AUTO 18007KT 10SM -DZ FEW022 OVC130 22/22 A2988 RMK AO2
                 RAB0759E25DZB47 TSB11E26 SLP121 P0064 60065 T02240215 58001 $ =
2018-05-27 04:47 METAR KDOV 270847Z AUTO 18005KT 10SM -DZ SCT022 SCT065 OVC130 22/22 A2988 RMK
                 AO2 RAB0759E25DZB47 TSB11E26 SLP121 $ =
2018-05-27 04:41 METAR KDOV 270841Z 18005KT 10SM SCT020 BKN030 BKN065 OVC130 22/22 A2988 RMK AO2A
                 RAB0759E25 TSB11E26 SLP121 $ =
2018-05-27 04:31 METAR KDOV 270831Z 17003KT 10SM BKN020 OVC031 22/22 A2988 RMK AO2A RAB0759E25
                 TSB11E26 CIG 018V025 SLP121 $ =
2018-05-27 04:26 METAR KDOV 270826Z 15005KT 7SM BKN018 BKN026 OVC032 22/22 A2988 RMK AO2A
                 RAB0759E25 TSB11E26 CIG 018V025 BKN018 V SCT SLP121 $ =
2018-05-27 04:11 METAR KDOV 270811Z 16013KT 7SM +TSRA SCT015 SCT022 OVC029CB 22/22 A2988 RMK VIS
                 1/2 RWY01 RAB0759 TSB12 CIG 029V034 OVC V BKN CIG 016 RWY01 SLP121 $ =
2018-05-27 04:08 METAR KDOV 270808Z AUTO 16014G20KT 9SM +RA FEW009 FEW015 FEW022 BKN029 OVC037
                 22/22 A2989 RMK AO2 VIS 1 1/4 RWY01 RAB0759 CIG 029V034 CIG 027 RWY01 SLP125 $ =
2018-05-27 04:03 METAR KDOV 270803Z AUTO 18014G20KT 10SM +RA FEW008 SCT028 BKN032 BKN048 23/22
                 A2989 RMK AO2 RAB0759 SLP125 $ =
2018-05-27 03:59 METAR KDOV 270759Z AUTO 18012KT 10SM -RA SCT028 BKN034 BKN046 OVC100 23/22 A2989
                 RMK AO2 RAB59 SLP125 $ =
2018-05-27 03:56 METAR KDOV 270756Z AUTO 18011KT 10SM SCT028 BKN034 BKN046 OVC100 23/22 A2988 RMK
                 AO2 RAB06E26DZB26E30 SLP121 P0001 T02290219 $ =
2018-05-27 03:30 METAR KDOV 270730Z AUTO 17007KT 10SM SCT055 BKN095 23/22 A2988 RMK AO2
                 RAB06E26DZB26E30 SLP121 $ =
2018-05-27 03:06 METAR KDOV 270706Z AUTO 17006KT 10SM -RA FEW032 SCT041 SCT100 24/21 A2988 RMK
                 AO2 RAB06 SLP121 $ =
2018-05-27 02:56 METAR KDOV 270656Z AUTO 15006KT 10SM FEW033 SCT110 24/22 A2988 RMK AO2 SLP121
                 T02380217 $ =
2018-05-27 01:56 METAR KDOV 270556Z AUTO 21003KT 10SM FEW130 OVC160 25/21 A2988 RMK AO2 SLP121
                 T02460207 10275 20245 50001 $ =
2018-05-27 00:56 METAR KDOV 270456Z AUTO 24008KT 10SM OVC160 25/21 A2988 RMK AO2 SLP121 T02540210
                 403190219 TSNO $ =
2018-05-26 23:56 METAR KDOV 270356Z AUTO 24007KT 10SM BKN100 OVC130 26/22 A2989 RMK AO2 SLP125
                 T02610219 TSNO $ =
2018-05-26 22:56 METAR KDOV 270256Z AUTO 20009KT 10SM BKN130 26/22 A2988 RMK AO2 SLP121 T02640222
                 52013 $ =
2018-05-26 21:56 METAR KDOV 270156Z AUTO 19005KT 10SM SCT140 BKN180 26/22 A2987 RMK AO2 SLP118
                 T02630221 $ =
2018-05-26 20:56 METAR KDOV 270056Z AUTO 16006KT 10SM SCT130 SCT190 26/22 A2984 RMK AO2 SLP108
                 T02630221 $ =
2018-05-26 19:56 METAR KDOV 262356Z AUTO 21005KT 10SM FEW130 27/22 A2984 RMK AO2 SLP108 T02740221
                 10319 20274 53008 $ =
2018-05-26 18:56 METAR KDOV 262256Z AUTO 23008KT 10SM FEW130 28/21 A2983 RMK AO2 SLP104 T02830213
                 $ =
2018-05-26 17:56 METAR KDOV 262156Z AUTO 22009KT 10SM FEW140 29/21 A2981 RMK AO2 SLP098 T02910210
                 $ =
2018-05-26 16:56 METAR KDOV 262056Z AUTO 21008KT 10SM FEW046 FEW190 30/21 A2981 RMK AO2 SLP098
                 T03020207 55007 $ =
2018-05-26 15:56 METAR KDOV 261956Z AUTO 21011KT 10SM FEW046 32/22 A2981 RMK AO2 SLP098 T03190217
                 $ =
2018-05-26 14:56 METAR KDOV 261856Z AUTO 21008KT 10SM FEW120 31/22 A2982 RMK AO2 SLP101 T03130220
                 $ =
2018-05-26 13:56 METAR KDOV 261756Z AUTO 22010KT 10SM CLR 31/22 A2983 RMK AO2 SLP104 T03090216
                 10310 20239 57013 $ =

Support USWX by starting your Amazon purchase here.